sensor_id;sensor_type;location;lat;lon;timestamp;temperature;humidity
63202;DHT22;49296;48.188;11.566;2023-07-24T00:01:46;24.16;55.74
63202;DHT22;49296;48.188;11.566;2023-07-24T00:04:12;24.15;55.77
63202;DHT22;49296;48.188;11.566;2023-07-24T00:06:40;24.13;55.78
63202;DHT22;49296;48.188;11.566;2023-07-24T00:09:07;24.05;56.07
63202;DHT22;49296;48.188;11.566;2023-07-24T00:11:33;23.99;56.16
63202;DHT22;49296;48.188;11.566;2023-07-24T00:14:00;23.98;56.08
63202;DHT22;49296;48.188;11.566;2023-07-24T00:16:26;23.96;56.00
63202;DHT22;49296;48.188;11.566;2023-07-24T00:18:53;23.92;56.18
63202;DHT22;49296;48.188;11.566;2023-07-24T00:21:19;23.95;56.13
63202;DHT22;49296;48.188;11.566;2023-07-24T00:23:47;23.92;56.14
63202;DHT22;49296;48.188;11.566;2023-07-24T00:26:14;23.98;56.10
63202;DHT22;49296;48.188;11.566;2023-07-24T00:28:40;23.90;56.13
63202;DHT22;49296;48.188;11.566;2023-07-24T00:31:07;23.86;56.25
63202;DHT22;49296;48.188;11.566;2023-07-24T00:33:33;23.84;56.34
63202;DHT22;49296;48.188;11.566;2023-07-24T00:36:00;23.77;56.51
63202;DHT22;49296;48.188;11.566;2023-07-24T00:38:27;23.68;56.70
63202;DHT22;49296;48.188;11.566;2023-07-24T00:40:55;23.70;56.54
63202;DHT22;49296;48.188;11.566;2023-07-24T00:43:21;23.67;56.61
63202;DHT22;49296;48.188;11.566;2023-07-24T00:45:48;23.68;56.63
63202;DHT22;49296;48.188;11.566;2023-07-24T00:48:15;23.67;56.61
63202;DHT22;49296;48.188;11.566;2023-07-24T00:50:42;23.64;56.64
63202;DHT22;49296;48.188;11.566;2023-07-24T00:53:10;23.64;56.64
63202;DHT22;49296;48.188;11.566;2023-07-24T00:55:37;23.58;56.78
63202;DHT22;49296;48.188;11.566;2023-07-24T00:58:06;23.57;56.74
63202;DHT22;49296;48.188;11.566;2023-07-24T01:00:32;23.58;56.77
63202;DHT22;49296;48.188;11.566;2023-07-24T01:02:59;23.58;56.91
63202;DHT22;49296;48.188;11.566;2023-07-24T01:05:26;23.54;56.98
63202;DHT22;49296;48.188;11.566;2023-07-24T01:07:53;23.49;57.12
63202;DHT22;49296;48.188;11.566;2023-07-24T01:10:19;23.39;57.20
63202;DHT22;49296;48.188;11.566;2023-07-24T01:12:56;23.36;57.35
63202;DHT22;49296;48.188;11.566;2023-07-24T01:15:32;23.37;57.43
63202;DHT22;49296;48.188;11.566;2023-07-24T01:18:01;23.34;57.51
63202;DHT22;49296;48.188;11.566;2023-07-24T01:20:29;23.29;57.74
63202;DHT22;49296;48.188;11.566;2023-07-24T01:23:13;23.26;57.88
63202;DHT22;49296;48.188;11.566;2023-07-24T01:25:54;23.23;57.84
63202;DHT22;49296;48.188;11.566;2023-07-24T01:28:21;23.19;58.01
63202;DHT22;49296;48.188;11.566;2023-07-24T01:30:47;23.16;58.13
63202;DHT22;49296;48.188;11.566;2023-07-24T01:33:14;23.03;58.34
63202;DHT22;49296;48.188;11.566;2023-07-24T01:35:41;23.15;58.13
63202;DHT22;49296;48.188;11.566;2023-07-24T01:38:09;23.15;58.16
63202;DHT22;49296;48.188;11.566;2023-07-24T01:40:36;23.18;58.19
63202;DHT22;49296;48.188;11.566;2023-07-24T01:43:05;23.19;58.22
63202;DHT22;49296;48.188;11.566;2023-07-24T01:45:31;23.19;58.15
63202;DHT22;49296;48.188;11.566;2023-07-24T01:47:58;23.20;58.21
63202;DHT22;49296;48.188;11.566;2023-07-24T01:50:25;23.22;58.27
63202;DHT22;49296;48.188;11.566;2023-07-24T01:52:52;23.20;58.21
63202;DHT22;49296;48.188;11.566;2023-07-24T01:55:18;23.15;58.32
63202;DHT22;49296;48.188;11.566;2023-07-24T01:57:45;22.96;58.80
63202;DHT22;49296;48.188;11.566;2023-07-24T02:00:13;22.81;59.30
63202;DHT22;49296;48.188;11.566;2023-07-24T02:02:40;22.41;59.95
63202;DHT22;49296;48.188;11.566;2023-07-24T02:05:07;22.53;59.89
63202;DHT22;49296;48.188;11.566;2023-07-24T02:07:33;22.63;59.70
63202;DHT22;49296;48.188;11.566;2023-07-24T02:10:00;22.40;60.02
63202;DHT22;49296;48.188;11.566;2023-07-24T02:12:27;22.37;60.17
63202;DHT22;49296;48.188;11.566;2023-07-24T02:14:53;22.26;60.54
63202;DHT22;49296;48.188;11.566;2023-07-24T02:17:23;22.41;60.35
63202;DHT22;49296;48.188;11.566;2023-07-24T02:19:49;22.43;60.13
63202;DHT22;49296;48.188;11.566;2023-07-24T02:22:16;22.50;59.91
63202;DHT22;49296;48.188;11.566;2023-07-24T02:24:43;22.58;59.68
63202;DHT22;49296;48.188;11.566;2023-07-24T02:27:12;22.47;60.09
63202;DHT22;49296;48.188;11.566;2023-07-24T02:29:39;21.58;62.06
63202;DHT22;49296;48.188;11.566;2023-07-24T02:32:06;21.30;62.52
63202;DHT22;49296;48.188;11.566;2023-07-24T02:34:34;20.92;62.92
63202;DHT22;49296;48.188;11.566;2023-07-24T02:37:01;20.95;62.89
63202;DHT22;49296;48.188;11.566;2023-07-24T02:39:27;20.96;62.95
63202;DHT22;49296;48.188;11.566;2023-07-24T02:41:54;21.09;62.52
63202;DHT22;49296;48.188;11.566;2023-07-24T02:44:20;21.22;62.38
63202;DHT22;49296;48.188;11.566;2023-07-24T02:46:47;21.42;62.13
63202;DHT22;49296;48.188;11.566;2023-07-24T02:49:13;21.60;61.75
63202;DHT22;49296;48.188;11.566;2023-07-24T02:51:41;21.73;61.48
63202;DHT22;49296;48.188;11.566;2023-07-24T02:54:08;21.81;61.32
63202;DHT22;49296;48.188;11.566;2023-07-24T02:56:34;21.91;61.05
63202;DHT22;49296;48.188;11.566;2023-07-24T02:59:01;21.98;60.90
63202;DHT22;49296;48.188;11.566;2023-07-24T03:01:27;22.04;60.83
63202;DHT22;49296;48.188;11.566;2023-07-24T03:03:54;22.02;60.82
63202;DHT22;49296;48.188;11.566;2023-07-24T03:06:20;21.84;61.04
63202;DHT22;49296;48.188;11.566;2023-07-24T03:08:48;21.44;61.97
63202;DHT22;49296;48.188;11.566;2023-07-24T03:11:15;21.23;63.92
63202;DHT22;49296;48.188;11.566;2023-07-24T03:13:41;20.88;67.97
63202;DHT22;49296;48.188;11.566;2023-07-24T03:16:08;20.26;70.70
63202;DHT22;49296;48.188;11.566;2023-07-24T03:18:35;19.70;72.20
63202;DHT22;49296;48.188;11.566;2023-07-24T03:21:02;19.56;73.03
63202;DHT22;49296;48.188;11.566;2023-07-24T03:23:29;19.68;73.47
63202;DHT22;49296;48.188;11.566;2023-07-24T03:25:57;19.71;73.30
63202;DHT22;49296;48.188;11.566;2023-07-24T03:28:23;19.89;72.70
63202;DHT22;49296;48.188;11.566;2023-07-24T03:30:50;20.09;72.38
63202;DHT22;49296;48.188;11.566;2023-07-24T03:33:17;20.25;71.76
63202;DHT22;49296;48.188;11.566;2023-07-24T03:35:43;20.51;71.73
63202;DHT22;49296;48.188;11.566;2023-07-24T03:38:10;20.64;71.73
63202;DHT22;49296;48.188;11.566;2023-07-24T03:40:36;20.48;71.02
63202;DHT22;49296;48.188;11.566;2023-07-24T03:43:04;20.56;71.67
63202;DHT22;49296;48.188;11.566;2023-07-24T03:45:31;20.54;71.57
63202;DHT22;49296;48.188;11.566;2023-07-24T03:47:57;20.73;72.40
63202;DHT22;49296;48.188;11.566;2023-07-24T03:50:24;20.87;71.86
63202;DHT22;49296;48.188;11.566;2023-07-24T03:52:51;20.98;71.84
63202;DHT22;49296;48.188;11.566;2023-07-24T03:55:17;21.02;72.05
63202;DHT22;49296;48.188;11.566;2023-07-24T03:57:44;20.95;71.69
63202;DHT22;49296;48.188;11.566;2023-07-24T04:00:13;20.88;71.57
63202;DHT22;49296;48.188;11.566;2023-07-24T04:02:40;20.90;71.55
63202;DHT22;49296;48.188;11.566;2023-07-24T04:05:06;20.99;71.60
63202;DHT22;49296;48.188;11.566;2023-07-24T04:07:33;21.10;72.02
63202;DHT22;49296;48.188;11.566;2023-07-24T04:09:59;21.12;71.97
63202;DHT22;49296;48.188;11.566;2023-07-24T04:12:28;21.18;72.00
63202;DHT22;49296;48.188;11.566;2023-07-24T04:14:55;21.18;71.45
63202;DHT22;49296;48.188;11.566;2023-07-24T04:17:23;21.05;71.45
63202;DHT22;49296;48.188;11.566;2023-07-24T04:19:50;21.16;71.49
63202;DHT22;49296;48.188;11.566;2023-07-24T04:22:16;21.18;72.09
63202;DHT22;49296;48.188;11.566;2023-07-24T04:24:43;21.39;70.57
63202;DHT22;49296;48.188;11.566;2023-07-24T04:27:09;21.32;71.49
63202;DHT22;49296;48.188;11.566;2023-07-24T04:29:36;20.46;74.03
63202;DHT22;49296;48.188;11.566;2023-07-24T04:32:03;20.63;73.67
63202;DHT22;49296;48.188;11.566;2023-07-24T04:34:31;20.88;73.15
63202;DHT22;49296;48.188;11.566;2023-07-24T04:36:58;20.91;72.86
63202;DHT22;49296;48.188;11.566;2023-07-24T04:39:25;20.39;74.32
63202;DHT22;49296;48.188;11.566;2023-07-24T04:41:51;20.73;73.39
63202;DHT22;49296;48.188;11.566;2023-07-24T04:44:18;20.90;73.03
63202;DHT22;49296;48.188;11.566;2023-07-24T04:46:44;21.02;72.62
63202;DHT22;49296;48.188;11.566;2023-07-24T04:49:11;21.10;72.61
63202;DHT22;49296;48.188;11.566;2023-07-24T04:51:39;21.20;72.19
63202;DHT22;49296;48.188;11.566;2023-07-24T04:54:05;21.34;71.42
63202;DHT22;49296;48.188;11.566;2023-07-24T04:56:32;21.43;71.54
63202;DHT22;49296;48.188;11.566;2023-07-24T04:58:59;21.49;71.73
63202;DHT22;49296;48.188;11.566;2023-07-24T05:01:25;21.53;71.52
63202;DHT22;49296;48.188;11.566;2023-07-24T05:03:52;21.57;71.19
63202;DHT22;49296;48.188;11.566;2023-07-24T05:06:18;21.65;70.85
63202;DHT22;49296;48.188;11.566;2023-07-24T05:08:46;21.57;71.12
63202;DHT22;49296;48.188;11.566;2023-07-24T05:11:12;21.43;71.42
63202;DHT22;49296;48.188;11.566;2023-07-24T05:13:39;21.43;71.64
63202;DHT22;49296;48.188;11.566;2023-07-24T05:16:06;21.39;71.24
63202;DHT22;49296;48.188;11.566;2023-07-24T05:18:32;21.51;70.84
63202;DHT22;49296;48.188;11.566;2023-07-24T05:20:59;21.60;70.67
63202;DHT22;49296;48.188;11.566;2023-07-24T05:23:25;21.42;71.03
63202;DHT22;49296;48.188;11.566;2023-07-24T05:25:57;21.39;71.16
63202;DHT22;49296;48.188;11.566;2023-07-24T05:28:25;21.50;70.86
63202;DHT22;49296;48.188;11.566;2023-07-24T05:30:51;21.44;70.69
63202;DHT22;49296;48.188;11.566;2023-07-24T05:33:18;21.49;70.57
63202;DHT22;49296;48.188;11.566;2023-07-24T05:35:44;21.49;70.34
63202;DHT22;49296;48.188;11.566;2023-07-24T05:38:11;21.62;69.98
63202;DHT22;49296;48.188;11.566;2023-07-24T05:40:37;21.58;70.12
63202;DHT22;49296;48.188;11.566;2023-07-24T05:43:05;21.62;70.07
63202;DHT22;49296;48.188;11.566;2023-07-24T05:45:32;21.55;70.03
63202;DHT22;49296;48.188;11.566;2023-07-24T05:47:58;21.60;69.88
63202;DHT22;49296;48.188;11.566;2023-07-24T05:50:25;21.75;69.61
63202;DHT22;49296;48.188;11.566;2023-07-24T05:52:51;21.95;69.10
63202;DHT22;49296;48.188;11.566;2023-07-24T05:55:18;22.09;68.72
63202;DHT22;49296;48.188;11.566;2023-07-24T05:57:44;22.12;68.61
63202;DHT22;49296;48.188;11.566;2023-07-24T06:00:13;22.13;68.00
63202;DHT22;49296;48.188;11.566;2023-07-24T06:02:39;22.16;67.76
63202;DHT22;49296;48.188;11.566;2023-07-24T06:05:06;22.26;67.32
63202;DHT22;49296;48.188;11.566;2023-07-24T06:07:33;22.33;66.85
63202;DHT22;49296;48.188;11.566;2023-07-24T06:09:59;22.46;66.70
63202;DHT22;49296;48.188;11.566;2023-07-24T06:12:26;22.54;66.41
63202;DHT22;49296;48.188;11.566;2023-07-24T06:14:52;22.63;66.08
63202;DHT22;49296;48.188;11.566;2023-07-24T06:17:20;22.58;65.77
63202;DHT22;49296;48.188;11.566;2023-07-24T06:19:47;22.54;65.48
63202;DHT22;49296;48.188;11.566;2023-07-24T06:22:14;22.68;64.71
63202;DHT22;49296;48.188;11.566;2023-07-24T06:24:40;22.71;64.70
63202;DHT22;49296;48.188;11.566;2023-07-24T06:27:07;22.72;64.51
63202;DHT22;49296;48.188;11.566;2023-07-24T06:29:34;22.72;64.81
63202;DHT22;49296;48.188;11.566;2023-07-24T06:32:00;22.75;64.72
63202;DHT22;49296;48.188;11.566;2023-07-24T06:34:28;22.90;64.45
63202;DHT22;49296;48.188;11.566;2023-07-24T06:36:55;23.06;64.02
63202;DHT22;49296;48.188;11.566;2023-07-24T06:39:21;23.19;63.33
63202;DHT22;49296;48.188;11.566;2023-07-24T06:41:48;23.20;63.10
63202;DHT22;49296;48.188;11.566;2023-07-24T06:44:14;23.26;62.61
63202;DHT22;49296;48.188;11.566;2023-07-24T06:46:41;23.27;62.58
63202;DHT22;49296;48.188;11.566;2023-07-24T06:49:07;23.36;62.60
63202;DHT22;49296;48.188;11.566;2023-07-24T06:51:37;23.36;62.10
63202;DHT22;49296;48.188;11.566;2023-07-24T06:54:03;23.60;61.93
63202;DHT22;49296;48.188;11.566;2023-07-24T06:56:30;23.62;61.55
63202;DHT22;49296;48.188;11.566;2023-07-24T06:58:57;23.75;61.15
63202;DHT22;49296;48.188;11.566;2023-07-24T07:01:23;23.75;60.74
63202;DHT22;49296;48.188;11.566;2023-07-24T07:03:50;23.95;60.35
63202;DHT22;49296;48.188;11.566;2023-07-24T07:06:16;24.05;59.54
63202;DHT22;49296;48.188;11.566;2023-07-24T07:08:44;24.19;59.72
63202;DHT22;49296;48.188;11.566;2023-07-24T07:11:11;24.30;59.27
63202;DHT22;49296;48.188;11.566;2023-07-24T07:13:37;24.37;58.95
63202;DHT22;49296;48.188;11.566;2023-07-24T07:16:04;24.40;58.69
63202;DHT22;49296;48.188;11.566;2023-07-24T07:18:31;24.23;58.87
63202;DHT22;49296;48.188;11.566;2023-07-24T07:20:57;24.12;58.79
63202;DHT22;49296;48.188;11.566;2023-07-24T07:23:24;24.02;59.06
63202;DHT22;49296;48.188;11.566;2023-07-24T07:25:52;23.95;59.26
63202;DHT22;49296;48.188;11.566;2023-07-24T07:28:18;23.82;59.23
63202;DHT22;49296;48.188;11.566;2023-07-24T07:30:45;23.50;60.46
63202;DHT22;49296;48.188;11.566;2023-07-24T07:33:12;23.34;61.88
63202;DHT22;49296;48.188;11.566;2023-07-24T07:35:38;23.13;62.89
63202;DHT22;49296;48.188;11.566;2023-07-24T07:38:05;22.51;65.41
63202;DHT22;49296;48.188;11.566;2023-07-24T07:40:31;21.84;69.50
63202;DHT22;49296;48.188;11.566;2023-07-24T07:42:59;21.53;72.20
63202;DHT22;49296;48.188;11.566;2023-07-24T07:45:26;21.46;73.32
63202;DHT22;49296;48.188;11.566;2023-07-24T07:47:52;21.00;74.19
63202;DHT22;49296;48.188;11.566;2023-07-24T07:50:19;20.80;75.08
63202;DHT22;49296;48.188;11.566;2023-07-24T07:52:49;20.75;75.43
63202;DHT22;49296;48.188;11.566;2023-07-24T07:55:17;20.58;76.17
63202;DHT22;49296;48.188;11.566;2023-07-24T07:57:44;20.51;75.99
63202;DHT22;49296;48.188;11.566;2023-07-24T08:00:13;20.40;76.67
63202;DHT22;49296;48.188;11.566;2023-07-24T08:02:40;20.54;76.45
63202;DHT22;49296;48.188;11.566;2023-07-24T08:05:07;20.75;75.60
63202;DHT22;49296;48.188;11.566;2023-07-24T08:07:34;20.88;75.30
63202;DHT22;49296;48.188;11.566;2023-07-24T08:10:00;20.90;75.06
63202;DHT22;49296;48.188;11.566;2023-07-24T08:12:27;20.82;74.92
63202;DHT22;49296;48.188;11.566;2023-07-24T08:14:53;21.03;74.96
63202;DHT22;49296;48.188;11.566;2023-07-24T08:17:22;21.03;74.84
63202;DHT22;49296;48.188;11.566;2023-07-24T08:19:48;21.06;74.55
63202;DHT22;49296;48.188;11.566;2023-07-24T08:22:15;21.25;73.74
63202;DHT22;49296;48.188;11.566;2023-07-24T08:24:41;21.08;73.32
63202;DHT22;49296;48.188;11.566;2023-07-24T08:27:10;21.18;73.86
63202;DHT22;49296;48.188;11.566;2023-07-24T08:29:36;21.40;72.68
63202;DHT22;49296;48.188;11.566;2023-07-24T08:32:04;21.29;72.22
63202;DHT22;49296;48.188;11.566;2023-07-24T08:34:32;21.22;72.38
63202;DHT22;49296;48.188;11.566;2023-07-24T08:36:58;21.51;71.53
63202;DHT22;49296;48.188;11.566;2023-07-24T08:39:25;21.47;70.52
63202;DHT22;49296;48.188;11.566;2023-07-24T08:41:51;21.64;70.74
63202;DHT22;49296;48.188;11.566;2023-07-24T08:44:18;21.84;70.40
63202;DHT22;49296;48.188;11.566;2023-07-24T08:46:45;21.98;69.77
63202;DHT22;49296;48.188;11.566;2023-07-24T08:49:12;22.09;69.22
63202;DHT22;49296;48.188;11.566;2023-07-24T08:51:41;22.29;68.92
63202;DHT22;49296;48.188;11.566;2023-07-24T08:54:08;22.50;68.27
63202;DHT22;49296;48.188;11.566;2023-07-24T08:56:36;22.61;67.63
63202;DHT22;49296;48.188;11.566;2023-07-24T08:59:03;22.63;67.60
63202;DHT22;49296;48.188;11.566;2023-07-24T09:01:30;22.65;67.30
63202;DHT22;49296;48.188;11.566;2023-07-24T09:03:56;22.65;67.28
63202;DHT22;49296;48.188;11.566;2023-07-24T09:06:23;22.78;67.40
63202;DHT22;49296;48.188;11.566;2023-07-24T09:08:53;22.74;67.19
63202;DHT22;49296;48.188;11.566;2023-07-24T09:11:20;22.85;67.02
63202;DHT22;49296;48.188;11.566;2023-07-24T09:13:46;22.92;66.98
63202;DHT22;49296;48.188;11.566;2023-07-24T09:16:21;22.91;67.21
63202;DHT22;49296;48.188;11.566;2023-07-24T09:18:48;22.90;67.16
63202;DHT22;49296;48.188;11.566;2023-07-24T09:21:27;22.78;67.43
63202;DHT22;49296;48.188;11.566;2023-07-24T09:23:55;22.88;67.56
63202;DHT22;49296;48.188;11.566;2023-07-24T09:26:22;22.95;67.73
63202;DHT22;49296;48.188;11.566;2023-07-24T09:28:51;23.12;67.92
63202;DHT22;49296;48.188;11.566;2023-07-24T09:31:18;23.16;68.00
63202;DHT22;49296;48.188;11.566;2023-07-24T09:33:45;23.19;68.91
63202;DHT22;49296;48.188;11.566;2023-07-24T09:36:12;23.16;68.71
63202;DHT22;49296;48.188;11.566;2023-07-24T09:38:39;23.26;68.72
63202;DHT22;49296;48.188;11.566;2023-07-24T09:41:08;23.12;68.70
63202;DHT22;49296;48.188;11.566;2023-07-24T09:43:34;23.16;68.89
63202;DHT22;49296;48.188;11.566;2023-07-24T09:46:04;23.09;68.87
63202;DHT22;49296;48.188;11.566;2023-07-24T09:48:31;23.16;67.39
63202;DHT22;49296;48.188;11.566;2023-07-24T09:50:59;23.22;66.54
63202;DHT22;49296;48.188;11.566;2023-07-24T09:53:31;23.39;67.22
63202;DHT22;49296;48.188;11.566;2023-07-24T09:56:00;23.42;66.29
63202;DHT22;49296;48.188;11.566;2023-07-24T09:58:29;23.50;64.94
63202;DHT22;49296;48.188;11.566;2023-07-24T10:00:56;23.65;64.93
63202;DHT22;49296;48.188;11.566;2023-07-24T10:03:24;23.65;64.00
63202;DHT22;49296;48.188;11.566;2023-07-24T10:05:52;23.70;64.34
63202;DHT22;49296;48.188;11.566;2023-07-24T10:08:20;23.81;64.01
63202;DHT22;49296;48.188;11.566;2023-07-24T10:10:48;23.67;62.96
63202;DHT22;49296;48.188;11.566;2023-07-24T10:13:17;23.71;62.95
63202;DHT22;49296;48.188;11.566;2023-07-24T10:15:46;23.77;62.47
63202;DHT22;49296;48.188;11.566;2023-07-24T10:18:15;23.85;62.47
63202;DHT22;49296;48.188;11.566;2023-07-24T10:20:42;23.79;61.75
63202;DHT22;49296;48.188;11.566;2023-07-24T10:23:09;23.89;61.07
63202;DHT22;49296;48.188;11.566;2023-07-24T10:25:38;24.02;61.88
63202;DHT22;49296;48.188;11.566;2023-07-24T10:28:07;24.13;62.68
63202;DHT22;49296;48.188;11.566;2023-07-24T10:30:37;24.12;61.85
63202;DHT22;49296;48.188;11.566;2023-07-24T10:33:07;24.23;60.41
63202;DHT22;49296;48.188;11.566;2023-07-24T10:35:37;24.41;60.26
63202;DHT22;49296;48.188;11.566;2023-07-24T10:38:04;24.64;62.13
63202;DHT22;49296;48.188;11.566;2023-07-24T10:40:31;24.74;60.65
63202;DHT22;49296;48.188;11.566;2023-07-24T10:43:00;24.79;60.44
63202;DHT22;49296;48.188;11.566;2023-07-24T10:45:38;24.86;59.97
63202;DHT22;49296;48.188;11.566;2023-07-24T10:48:06;24.91;60.46
63202;DHT22;49296;48.188;11.566;2023-07-24T10:50:37;24.85;60.24
63202;DHT22;49296;48.188;11.566;2023-07-24T10:53:04;24.91;60.63
63202;DHT22;49296;48.188;11.566;2023-07-24T10:55:31;24.89;60.21
63202;DHT22;49296;48.188;11.566;2023-07-24T10:57:57;25.01;61.47
63202;DHT22;49296;48.188;11.566;2023-07-24T11:00:25;25.08;59.73
63202;DHT22;49296;48.188;11.566;2023-07-24T11:02:53;25.09;57.67
63202;DHT22;49296;48.188;11.566;2023-07-24T11:05:21;25.18;57.60
63202;DHT22;49296;48.188;11.566;2023-07-24T11:07:48;25.29;59.81
63202;DHT22;49296;48.188;11.566;2023-07-24T11:10:15;25.34;60.38
63202;DHT22;49296;48.188;11.566;2023-07-24T11:12:42;25.29;56.08
63202;DHT22;49296;48.188;11.566;2023-07-24T11:15:10;25.36;57.57
63202;DHT22;49296;48.188;11.566;2023-07-24T11:17:38;25.51;57.83
63202;DHT22;49296;48.188;11.566;2023-07-24T11:20:08;25.44;55.17
63202;DHT22;49296;48.188;11.566;2023-07-24T11:22:38;25.40;54.69
63202;DHT22;49296;48.188;11.566;2023-07-24T11:25:05;25.51;54.94
63202;DHT22;49296;48.188;11.566;2023-07-24T11:27:32;25.54;54.60
63202;DHT22;49296;48.188;11.566;2023-07-24T11:29:58;25.65;54.92
63202;DHT22;49296;48.188;11.566;2023-07-24T11:32:25;25.64;53.03
63202;DHT22;49296;48.188;11.566;2023-07-24T11:34:52;25.68;53.55
63202;DHT22;49296;48.188;11.566;2023-07-24T11:37:19;25.75;53.49
63202;DHT22;49296;48.188;11.566;2023-07-24T11:39:56;25.75;51.80
63202;DHT22;49296;48.188;11.566;2023-07-24T11:42:25;25.78;52.46
63202;DHT22;49296;48.188;11.566;2023-07-24T11:44:51;25.75;51.84
63202;DHT22;49296;48.188;11.566;2023-07-24T11:47:20;25.72;51.29
63202;DHT22;49296;48.188;11.566;2023-07-24T11:49:56;25.71;52.03
63202;DHT22;49296;48.188;11.566;2023-07-24T11:52:23;25.72;51.35
63202;DHT22;49296;48.188;11.566;2023-07-24T11:54:57;25.64;51.06
63202;DHT22;49296;48.188;11.566;2023-07-24T11:57:27;25.57;52.22
63202;DHT22;49296;48.188;11.566;2023-07-24T11:59:53;25.51;52.78
63202;DHT22;49296;48.188;11.566;2023-07-24T12:02:23;25.55;53.69
63202;DHT22;49296;48.188;11.566;2023-07-24T12:04:54;25.29;54.09
63202;DHT22;49296;48.188;11.566;2023-07-24T12:07:21;25.10;55.07
63202;DHT22;49296;48.188;11.566;2023-07-24T12:09:51;25.10;55.46
63202;DHT22;49296;48.188;11.566;2023-07-24T12:12:19;24.96;55.60
63202;DHT22;49296;48.188;11.566;2023-07-24T12:14:46;24.77;56.59
63202;DHT22;49296;48.188;11.566;2023-07-24T12:17:17;24.79;57.87
63202;DHT22;49296;48.188;11.566;2023-07-24T12:19:45;24.46;60.19
63202;DHT22;49296;48.188;11.566;2023-07-24T12:22:12;24.32;60.87
63202;DHT22;49296;48.188;11.566;2023-07-24T12:24:39;24.16;61.03
63202;DHT22;49296;48.188;11.566;2023-07-24T12:27:05;23.85;63.53
63202;DHT22;49296;48.188;11.566;2023-07-24T12:29:33;23.58;65.89
63202;DHT22;49296;48.188;11.566;2023-07-24T12:32:02;23.42;67.13
63202;DHT22;49296;48.188;11.566;2023-07-24T12:34:28;23.13;67.81
63202;DHT22;49296;48.188;11.566;2023-07-24T12:36:55;22.98;69.74
63202;DHT22;49296;48.188;11.566;2023-07-24T12:39:21;22.85;68.36
63202;DHT22;49296;48.188;11.566;2023-07-24T12:41:48;23.05;69.08
63202;DHT22;49296;48.188;11.566;2023-07-24T12:44:14;23.06;67.64
63202;DHT22;49296;48.188;11.566;2023-07-24T12:46:42;23.02;68.09
63202;DHT22;49296;48.188;11.566;2023-07-24T12:49:09;23.22;68.08
63202;DHT22;49296;48.188;11.566;2023-07-24T12:51:36;22.94;67.61
63202;DHT22;49296;48.188;11.566;2023-07-24T12:54:02;22.75;69.00
63202;DHT22;49296;48.188;11.566;2023-07-24T12:56:29;22.60;70.24
63202;DHT22;49296;48.188;11.566;2023-07-24T12:58:55;22.46;70.93
63202;DHT22;49296;48.188;11.566;2023-07-24T13:01:22;22.36;71.89
63202;DHT22;49296;48.188;11.566;2023-07-24T13:03:50;22.37;71.75
63202;DHT22;49296;48.188;11.566;2023-07-24T13:06:17;22.05;70.32
63202;DHT22;49296;48.188;11.566;2023-07-24T13:08:43;21.94;70.84
63202;DHT22;49296;48.188;11.566;2023-07-24T13:11:10;21.82;71.13
63202;DHT22;49296;48.188;11.566;2023-07-24T13:13:36;21.62;71.96
63202;DHT22;49296;48.188;11.566;2023-07-24T13:16:03;21.51;73.00
63202;DHT22;49296;48.188;11.566;2023-07-24T13:18:30;21.34;73.37
63202;DHT22;49296;48.188;11.566;2023-07-24T13:20:58;21.47;72.96
63202;DHT22;49296;48.188;11.566;2023-07-24T13:23:24;21.42;72.50
63202;DHT22;49296;48.188;11.566;2023-07-24T13:25:52;21.36;72.74
63202;DHT22;49296;48.188;11.566;2023-07-24T13:28:19;21.34;73.06
63202;DHT22;49296;48.188;11.566;2023-07-24T13:30:46;21.32;73.39
63202;DHT22;49296;48.188;11.566;2023-07-24T13:33:12;21.44;73.20
63202;DHT22;49296;48.188;11.566;2023-07-24T13:35:39;21.49;73.05
63202;DHT22;49296;48.188;11.566;2023-07-24T13:38:07;21.23;74.42
63202;DHT22;49296;48.188;11.566;2023-07-24T13:40:34;21.36;74.22
63202;DHT22;49296;48.188;11.566;2023-07-24T13:43:00;21.50;73.55
63202;DHT22;49296;48.188;11.566;2023-07-24T13:45:27;21.87;72.95
63202;DHT22;49296;48.188;11.566;2023-07-24T13:47:54;21.89;72.84
63202;DHT22;49296;48.188;11.566;2023-07-24T13:50:20;22.05;72.21
63202;DHT22;49296;48.188;11.566;2023-07-24T13:52:47;21.81;71.99
63202;DHT22;49296;48.188;11.566;2023-07-24T13:55:15;22.09;71.70
63202;DHT22;49296;48.188;11.566;2023-07-24T13:57:42;22.35;72.07
63202;DHT22;49296;48.188;11.566;2023-07-24T14:00:09;22.39;71.19
63202;DHT22;49296;48.188;11.566;2023-07-24T14:02:36;22.44;69.88
63202;DHT22;49296;48.188;11.566;2023-07-24T14:05:03;22.23;70.54
63202;DHT22;49296;48.188;11.566;2023-07-24T14:07:29;22.06;71.35
63202;DHT22;49296;48.188;11.566;2023-07-24T14:09:56;22.47;70.23
63202;DHT22;49296;48.188;11.566;2023-07-24T14:12:24;22.96;69.22
63202;DHT22;49296;48.188;11.566;2023-07-24T14:14:50;23.34;67.92
63202;DHT22;49296;48.188;11.566;2023-07-24T14:17:17;23.60;67.66
63202;DHT22;49296;48.188;11.566;2023-07-24T14:19:44;23.37;66.90
63202;DHT22;49296;48.188;11.566;2023-07-24T14:22:14;24.02;66.38
63202;DHT22;49296;48.188;11.566;2023-07-24T14:24:40;24.19;65.48
63202;DHT22;49296;48.188;11.566;2023-07-24T14:27:07;24.86;65.18
63202;DHT22;49296;48.188;11.566;2023-07-24T14:29:35;25.38;63.80
63202;DHT22;49296;48.188;11.566;2023-07-24T14:32:01;25.75;62.44
63202;DHT22;49296;48.188;11.566;2023-07-24T14:34:28;25.44;61.34
63202;DHT22;49296;48.188;11.566;2023-07-24T14:36:54;25.29;61.72
63202;DHT22;49296;48.188;11.566;2023-07-24T14:39:21;25.99;60.69
63202;DHT22;49296;48.188;11.566;2023-07-24T14:41:48;26.10;60.31
63202;DHT22;49296;48.188;11.566;2023-07-24T14:44:14;26.48;59.60
63202;DHT22;49296;48.188;11.566;2023-07-24T14:46:42;26.39;59.91
63202;DHT22;49296;48.188;11.566;2023-07-24T14:49:09;26.75;59.83
63202;DHT22;49296;48.188;11.566;2023-07-24T14:51:35;27.29;57.91
63202;DHT22;49296;48.188;11.566;2023-07-24T14:54:02;27.54;55.15
63202;DHT22;49296;48.188;11.566;2023-07-24T14:56:28;27.37;54.37
63202;DHT22;49296;48.188;11.566;2023-07-24T14:58:55;26.96;54.19
63202;DHT22;49296;48.188;11.566;2023-07-24T15:01:22;27.75;53.30
63202;DHT22;49296;48.188;11.566;2023-07-24T15:03:49;28.19;53.49
63202;DHT22;49296;48.188;11.566;2023-07-24T15:06:16;27.98;52.37
63202;DHT22;49296;48.188;11.566;2023-07-24T15:08:43;28.06;52.05
63202;DHT22;49296;48.188;11.566;2023-07-24T15:11:09;28.26;51.48
63202;DHT22;49296;48.188;11.566;2023-07-24T15:13:40;28.57;50.98
63202;DHT22;49296;48.188;11.566;2023-07-24T15:16:10;28.26;51.07